Aeroporto :
LOGIN :

Iscrizione | Disclaimer

   EN    FR    IT 

 










Sommario :    VFR   VFR Marginale   IFR   IFR Intensivo   IFR Molto Intensivo
Visibilità : 
Base nubi : 
>= 8 km
>= 3000ft
5 / 8 km
1000 / 3000 ft
1500m / 5 km
500 / 1000 ft
800 / 1500m
200 / 500 ft
< 800m
< 200 ft
Simboli :   Temporali  Nebbia  Neve Forte  Precipitazioni Forti  Vento > 20 kt
SIGMETs :   Varie  Temporali  Ghiacco  Turbolenza  Onda orograficha  Ceneri Vulcaniche






- Altitudine del aeroporto : 160 ft
- Codice IATA : LRT


LFRH - Lorient Lann Bihoue

ULTIMO METAR :
  • 091900Z AUTO 28015KT CAVOK 12/09 Q1013 BECMG 27015G25KT

METARs OBSOLETI :
  • 091830Z AUTO 27014KT CAVOK 12/09 Q1012 BECMG 27015G25KT
  • 091800Z AUTO 27015KT 9999 FEW027 12/09 Q1011 BECMG 27015G25KT
  • 091730Z AUTO 27016G26KT 9999 BKN027 BKN033 12/10 Q1010 NOSIG
  • 091700Z AUTO 27017KT 240V300 9000 BKN024 OVC054 12/10 Q1010 BECMG 27020G30KT
  • 091630Z AUTO 27015G26KT 240V310 9999 BKN025 OVC032 12/09 Q1009 NOSIG
  • 091600Z AUTO 27013KT 9999 BKN027 OVC033 12/09 Q1008 BECMG 27020G30KT
  • 091530Z AUTO 28014KT 9999 BKN029 12/08 Q1008 BECMG 27020G30KT
  • 091500Z AUTO 28015G28KT 240V310 9999 FEW028 12/09 Q1007 NOSIG
  • 091430Z AUTO 28018G29KT 260V320 9999 FEW022 BKN029 BKN035 13/10 Q1006 NOSIG

TAF TAF LFRH
Valido dal 09 a 18 ore il 10 a 18 ore UTC


091700Z 0918/1018 27015G25KT 9000 BKN025
BECMG 1005/1008 19015G25KT 3500 RADZ BKN006
BECMG 1008/1010 25020G35KT 9999 NSW BKN010
TEMPO 1010/1016 2000 RADZ BKN003 OVC005
BECMG 1016/1018 25010KT



MetMap, La meteo Aeronautica in un colpo d'occhio ! - Copyright ORBIFLY Dicembre 2007 - Disclaimer

ORBIFLY MET'MAP TEAM :

Programmazione e sviluppo : Alexandra Zaïnal
Concezione : Baudouin d'Aumeries
Supporto tecnico e logistico : Manuel Goepfert
Aiuto : Marc-Olivier Méhu
Aiuto per la traduzione : Arnaldo La Scala




FONTI E CREDITI :

   NOAA